createdAt,value
2015-08-29T00:00:02.682Z,10.44
2015-08-29T00:00:15.088Z,10.38
2015-08-29T00:00:27.510Z,10.36
2015-08-29T00:00:39.886Z,10.32
2015-08-29T00:00:52.261Z,10.36
2015-08-29T00:01:04.652Z,10.35
2015-08-29T00:01:17.027Z,10.38
2015-08-29T00:01:29.402Z,10.38
2015-08-29T00:01:41.779Z,10.42
2015-08-29T00:01:54.154Z,10.38
2015-08-29T00:02:06.529Z,10.35
2015-08-29T00:02:18.919Z,10.26
2015-08-29T00:02:31.294Z,10.28
2015-08-29T00:02:42.968Z,10.38
2015-08-29T00:02:55.343Z,10.32
2015-08-29T00:03:07.718Z,10.36
2015-08-29T00:03:20.093Z,10.39
2015-08-29T00:03:32.484Z,10.36
2015-08-29T00:03:44.876Z,10.33
2015-08-29T00:03:57.251Z,10.31
2015-08-29T00:04:09.626Z,10.25
2015-08-29T00:04:22.001Z,10.42
2015-08-29T00:04:34.376Z,10.35
2015-08-29T00:04:46.753Z,10.36
2015-08-29T00:04:59.160Z,10.25
2015-08-29T00:05:11.535Z,10.29
2015-08-29T00:05:23.910Z,10.36
2015-08-29T00:05:36.285Z,10.29
2015-08-29T00:05:48.662Z,10.38
2015-08-29T00:06:01.037Z,10.25
2015-08-29T00:06:13.412Z,10.33
2015-08-29T00:06:25.802Z,10.29
2015-08-29T00:06:38.177Z,10.31
2015-08-29T00:06:50.570Z,10.33
2015-08-29T00:07:02.960Z,10.25
2015-08-29T00:07:15.335Z,10.33
2015-08-29T00:07:27.742Z,10.33
2015-08-29T00:07:40.148Z,10.29
2015-08-29T00:07:52.556Z,10.32
2015-08-29T00:08:04.962Z,10.36
2015-08-29T00:08:17.369Z,10.26
2015-08-29T00:08:29.775Z,10.31
2015-08-29T00:08:41.462Z,10.29
2015-08-29T00:08:53.871Z,10.23
2015-08-29T00:09:06.293Z,10.32
2015-08-29T00:09:18.699Z,10.32
2015-08-29T00:09:31.105Z,10.26
2015-08-29T00:09:43.511Z,10.29
2015-08-29T00:09:55.889Z,10.23
2015-08-29T00:10:08.264Z,10.25
2015-08-29T00:10:20.639Z,10.32
2015-08-29T00:10:32.999Z,10.23
2015-08-29T00:10:45.374Z,10.28
2015-08-29T00:10:57.734Z,10.36
2015-08-29T00:11:10.109Z,10.35
2015-08-29T00:11:22.500Z,10.25
2015-08-29T00:11:34.875Z,10.36
2015-08-29T00:11:46.547Z,10.41
2015-08-29T00:11:58.924Z,10.33
2015-08-29T00:12:11.299Z,10.49
2015-08-29T00:12:23.674Z,10.35
2015-08-29T00:12:36.049Z,10.42
2015-08-29T00:12:48.424Z,10.38
2015-08-29T00:13:00.801Z,10.38
2015-08-29T00:13:13.176Z,10.41
2015-08-29T00:13:25.566Z,10.38
2015-08-29T00:13:37.926Z,10.36
2015-08-29T00:13:50.301Z,10.36
2015-08-29T00:14:02.693Z,10.39
2015-08-29T00:14:15.084Z,10.39
2015-08-29T00:14:27.459Z,10.51
2015-08-29T00:14:39.834Z,10.52
2015-08-29T00:14:52.209Z,10.47
2015-08-29T00:15:04.601Z,10.47
2015-08-29T00:15:16.976Z,10.54
2015-08-29T00:15:29.367Z,10.49
2015-08-29T00:15:41.055Z,10.52
2015-08-29T00:15:52.742Z,10.52
2015-08-29T00:16:05.135Z,10.49
2015-08-29T00:16:17.525Z,10.55
2015-08-29T00:16:29.900Z,10.52
2015-08-29T00:16:42.307Z,10.54
2015-08-29T00:16:54.697Z,10.57
2015-08-29T00:17:07.121Z,10.51
2015-08-29T00:17:19.527Z,10.57
2015-08-29T00:17:31.918Z,10.57
2015-08-29T00:17:44.324Z,10.55
2015-08-29T00:17:56.715Z,10.49
2015-08-29T00:18:09.123Z,10.51
2015-08-29T00:18:21.545Z,10.57
2015-08-29T00:18:33.951Z,10.57
2015-08-29T00:18:46.357Z,10.66
2015-08-29T00:18:58.764Z,10.63
2015-08-29T00:19:11.188Z,10.59
2015-08-29T00:19:23.563Z,10.58
2015-08-29T00:19:35.938Z,10.58
2015-08-29T00:19:48.313Z,10.58
2015-08-29T00:20:00.688Z,10.61
2015-08-29T00:20:13.065Z,10.61
2015-08-29T00:20:25.440Z,10.7
2015-08-29T00:20:37.830Z,10.63
2015-08-29T00:20:50.205Z,10.61
2015-08-29T00:21:02.580Z,10.65
2015-08-29T00:21:14.942Z,10.55
2015-08-29T00:21:27.317Z,10.58
2015-08-29T00:21:39.692Z,10.61
2015-08-29T00:21:52.067Z,10.7
2015-08-29T00:22:04.442Z,10.65
2015-08-29T00:22:16.834Z,10.57
2015-08-29T00:22:29.225Z,10.66
2015-08-29T00:22:41.600Z,10.58
2015-08-29T00:22:53.975Z,10.61
2015-08-29T00:23:06.350Z,10.63
2015-08-29T00:23:18.726Z,10.63
2015-08-29T00:23:31.101Z,10.66
2015-08-29T00:23:43.491Z,10.66
2015-08-29T00:23:55.882Z,10.66
2015-08-29T00:24:08.257Z,10.63
2015-08-29T00:24:20.635Z,10.65
2015-08-29T00:24:33.010Z,10.63
2015-08-29T00:24:45.385Z,10.66
2015-08-29T00:24:57.776Z,10.72
2015-08-29T00:25:10.166Z,10.66
2015-08-29T00:25:22.559Z,10.59
2015-08-29T00:25:34.934Z,10.67
2015-08-29T00:25:47.325Z,10.67
2015-08-29T00:25:59.700Z,10.61
2015-08-29T00:26:12.090Z,10.67
2015-08-29T00:26:24.498Z,10.69
2015-08-29T00:26:36.920Z,10.73
2015-08-29T00:26:49.311Z,10.67
2015-08-29T00:27:01.717Z,10.65
2015-08-29T00:27:14.108Z,10.69
2015-08-29T00:27:26.515Z,10.69
2015-08-29T00:27:38.906Z,10.77
2015-08-29T00:27:51.312Z,10.7
2015-08-29T00:28:03.734Z,10.76
2015-08-29T00:28:16.124Z,10.7
2015-08-29T00:28:28.534Z,10.72
2015-08-29T00:28:40.909Z,10.79
2015-08-29T00:28:53.268Z,10.7
2015-08-29T00:29:05.643Z,10.67
2015-08-29T00:29:18.034Z,10.69
2015-08-29T00:29:30.411Z,10.73
2015-08-29T00:29:42.770Z,10.63
2015-08-29T00:29:55.145Z,10.67
2015-08-29T00:30:07.551Z,10.7
2015-08-29T00:30:19.926Z,10.66
2015-08-29T00:30:32.303Z,10.77
2015-08-29T00:30:44.678Z,10.66
2015-08-29T00:30:57.053Z,10.67
2015-08-29T00:31:09.428Z,10.65
2015-08-29T00:31:21.803Z,10.63
2015-08-29T00:31:34.196Z,10.69
2015-08-29T00:31:46.555Z,10.65
2015-08-29T00:31:58.930Z,10.73
2015-08-29T00:32:11.305Z,10.69
2015-08-29T00:32:23.680Z,10.59
2015-08-29T00:32:36.057Z,10.63
2015-08-29T00:32:48.432Z,10.67
2015-08-29T00:33:00.839Z,10.65
2015-08-29T00:33:13.214Z,10.67
2015-08-29T00:33:25.589Z,10.67
2015-08-29T00:33:37.965Z,10.67
2015-08-29T00:33:50.340Z,10.67
2015-08-29T00:34:02.715Z,10.67
2015-08-29T00:34:15.090Z,10.59
2015-08-29T00:34:27.480Z,10.63
2015-08-29T00:34:39.858Z,10.63
2015-08-29T00:34:52.249Z,10.63
2015-08-29T00:35:04.639Z,10.63
2015-08-29T00:35:17.014Z,10.65
2015-08-29T00:35:29.421Z,10.63
2015-08-29T00:35:41.829Z,10.61
2015-08-29T00:35:54.235Z,10.67
2015-08-29T00:36:06.626Z,10.63
2015-08-29T00:36:19.048Z,10.67
2015-08-29T00:36:31.438Z,10.58
2015-08-29T00:36:43.847Z,10.61
2015-08-29T00:36:56.253Z,10.57
2015-08-29T00:37:08.659Z,10.67
2015-08-29T00:37:21.050Z,10.59
2015-08-29T00:37:33.456Z,10.65
2015-08-29T00:37:45.863Z,10.67
2015-08-29T00:37:58.269Z,10.66
2015-08-29T00:38:10.660Z,10.65
2015-08-29T00:38:22.332Z,10.59
2015-08-29T00:38:34.707Z,10.65
2015-08-29T00:38:47.069Z,10.54
2015-08-29T00:38:59.444Z,10.61
2015-08-29T00:39:11.819Z,10.58
2015-08-29T00:39:24.210Z,10.59
2015-08-29T00:39:36.585Z,10.58
2015-08-29T00:39:48.977Z,10.61
2015-08-29T00:40:01.352Z,10.61
2015-08-29T00:40:13.727Z,10.54
2015-08-29T00:40:26.102Z,10.66
2015-08-29T00:40:38.477Z,10.58
2015-08-29T00:40:50.870Z,10.59
2015-08-29T00:41:03.245Z,10.55
2015-08-29T00:41:15.620Z,10.49
2015-08-29T00:41:27.995Z,10.63
2015-08-29T00:41:40.370Z,10.54
2015-08-29T00:41:52.732Z,10.49
2015-08-29T00:42:05.107Z,10.52
2015-08-29T00:42:17.497Z,10.54
2015-08-29T00:42:29.872Z,10.49
2015-08-29T00:42:42.247Z,10.54
2015-08-29T00:42:54.624Z,10.52
2015-08-29T00:43:06.984Z,10.52
2015-08-29T00:43:19.359Z,10.51
2015-08-29T00:43:31.734Z,10.42
2015-08-29T00:43:44.109Z,10.41
2015-08-29T00:43:56.501Z,10.41
2015-08-29T00:44:08.892Z,10.49
2015-08-29T00:44:21.282Z,10.41
2015-08-29T00:44:33.673Z,10.39
2015-08-29T00:44:46.064Z,10.42
2015-08-29T00:44:58.440Z,10.38
2015-08-29T00:45:10.846Z,10.35
2015-08-29T00:45:23.268Z,10.41
2015-08-29T00:45:35.674Z,10.38
2015-08-29T00:45:48.065Z,10.35
2015-08-29T00:46:00.490Z,10.41
2015-08-29T00:46:12.896Z,10.35
2015-08-29T00:46:25.318Z,10.41
2015-08-29T00:46:37.724Z,10.36
2015-08-29T00:46:50.146Z,10.33
2015-08-29T00:47:02.537Z,10.38
2015-08-29T00:47:14.944Z,10.35
2015-08-29T00:47:27.366Z,10.36
2015-08-29T00:47:39.022Z,10.35
2015-08-29T00:47:51.397Z,10.36
2015-08-29T00:48:03.774Z,10.36
2015-08-29T00:48:16.149Z,10.38
2015-08-29T00:48:28.524Z,10.28
2015-08-29T00:48:40.180Z,10.26
2015-08-29T00:48:52.555Z,10.21
2015-08-29T00:49:04.948Z,10.28
2015-08-29T00:49:17.323Z,10.31
2015-08-29T00:49:29.682Z,10.32
2015-08-29T00:49:42.057Z,10.38
2015-08-29T00:49:54.432Z,10.31
2015-08-29T00:50:06.810Z,10.26
2015-08-29T00:50:18.451Z,10.32
2015-08-29T00:50:30.841Z,10.33
2015-08-29T00:50:43.232Z,10.33
2015-08-29T00:50:55.607Z,10.32
2015-08-29T00:51:07.983Z,10.38
2015-08-29T00:51:20.374Z,10.33
2015-08-29T00:51:32.749Z,10.28
2015-08-29T00:51:45.124Z,10.25
2015-08-29T00:51:57.514Z,10.23
2015-08-29T00:52:09.877Z,10.36
2015-08-29T00:52:22.252Z,10.28
2015-08-29T00:52:34.627Z,10.26
2015-08-29T00:52:47.002Z,10.29
2015-08-29T00:52:59.392Z,10.32
2015-08-29T00:53:11.754Z,10.28
2015-08-29T00:53:24.160Z,10.31
2015-08-29T00:53:36.550Z,10.31
2015-08-29T00:53:48.925Z,10.36
2015-08-29T00:54:01.316Z,10.28
2015-08-29T00:54:13.708Z,10.38
2015-08-29T00:54:26.098Z,10.36
2015-08-29T00:54:38.505Z,10.39
2015-08-29T00:54:50.926Z,10.26
2015-08-29T00:55:03.333Z,10.36
2015-08-29T00:55:15.851Z,10.33
2015-08-29T00:55:28.273Z,10.38
2015-08-29T00:55:40.758Z,10.38
2015-08-29T00:55:53.164Z,10.44
2015-08-29T00:56:05.586Z,10.47
2015-08-29T00:56:17.993Z,10.35
2015-08-29T00:56:30.415Z,10.41
2015-08-29T00:56:42.837Z,10.36
2015-08-29T00:56:55.227Z,10.46
2015-08-29T00:57:07.602Z,10.44
2015-08-29T00:57:19.980Z,10.44
2015-08-29T00:57:32.371Z,10.54
2015-08-29T00:57:44.762Z,10.49
2015-08-29T00:57:57.137Z,10.52
2015-08-29T00:58:09.512Z,10.46
2015-08-29T00:58:21.903Z,10.44
2015-08-29T00:58:33.591Z,10.44
2015-08-29T00:58:46.075Z,10.42
2015-08-29T00:58:58.778Z,10.47
2015-08-29T00:59:12.450Z,10.39
2015-08-29T00:59:27.218Z,10.49
2015-08-29T00:59:41.780Z,10.54
2015-08-29T01:00:11.249Z,10.49
2015-08-29T01:00:25.813Z,10.51
2015-08-29T01:00:38.470Z,10.54
2015-08-29T01:00:51.126Z,10.52
2015-08-29T01:01:03.142Z,10.52
2015-08-29T01:01:15.985Z,10.63
2015-08-29T01:01:28.675Z,10.57
2015-08-29T01:01:41.972Z,10.59
2015-08-29T01:01:54.472Z,10.49
2015-08-29T01:02:06.956Z,10.54
2015-08-29T01:02:19.536Z,10.54
2015-08-29T01:02:32.021Z,10.51
2015-08-29T01:02:44.442Z,10.61
2015-08-29T01:02:56.833Z,10.55
2015-08-29T01:03:11.489Z,10.57
2015-08-29T01:03:25.804Z,10.57
2015-08-29T01:03:38.835Z,10.58
2015-08-29T01:03:51.632Z,10.57
2015-08-29T01:04:03.554Z,10.59
2015-08-29T01:04:16.069Z,10.57
2015-08-29T01:04:28.525Z,10.57
2015-08-29T01:04:41.353Z,10.61
2015-08-29T01:04:53.759Z,10.61
2015-08-29T01:05:06.196Z,10.63
2015-08-29T01:05:18.603Z,10.63
2015-08-29T01:05:31.027Z,10.66
2015-08-29T01:05:43.448Z,10.59
2015-08-29T01:05:55.855Z,10.61
2015-08-29T01:06:09.027Z,10.65
2015-08-29T01:06:21.448Z,10.65
2015-08-29T01:06:33.872Z,10.55
2015-08-29T01:06:46.357Z,10.61
2015-08-29T01:06:58.263Z,10.65
2015-08-29T01:07:10.654Z,10.63
2015-08-29T01:07:23.044Z,10.61
2015-08-29T01:07:35.421Z,10.59
2015-08-29T01:07:47.827Z,10.66
2015-08-29T01:08:00.202Z,10.58
2015-08-29T01:08:12.577Z,10.55
2015-08-29T01:08:24.984Z,10.58
2015-08-29T01:08:37.361Z,10.61
2015-08-29T01:08:49.033Z,10.61
2015-08-29T01:09:01.408Z,10.61
2015-08-29T01:09:13.798Z,10.59
2015-08-29T01:09:26.158Z,10.58
2015-08-29T01:09:38.535Z,10.65
2015-08-29T01:09:50.910Z,10.63
2015-08-29T01:10:03.300Z,10.61
2015-08-29T01:10:15.675Z,10.65
2015-08-29T01:10:28.050Z,10.61
2015-08-29T01:10:40.426Z,10.67
2015-08-29T01:10:52.817Z,10.61
2015-08-29T01:11:05.192Z,10.66
2015-08-29T01:11:17.582Z,10.66
2015-08-29T01:11:29.957Z,10.67
2015-08-29T01:11:42.351Z,10.72
2015-08-29T01:11:54.726Z,10.66
2015-08-29T01:12:07.085Z,10.63
2015-08-29T01:12:19.460Z,10.63
2015-08-29T01:12:31.835Z,10.76
2015-08-29T01:12:44.212Z,10.66
2015-08-29T01:12:56.634Z,10.7
2015-08-29T01:13:09.181Z,10.72
2015-08-29T01:13:21.556Z,10.67
2015-08-29T01:13:33.947Z,10.8
2015-08-29T01:13:46.339Z,10.7
2015-08-29T01:13:58.730Z,10.69
2015-08-29T01:14:11.136Z,10.72
2015-08-29T01:14:23.636Z,10.7
2015-08-29T01:14:36.043Z,10.73
2015-08-29T01:14:48.404Z,10.7
2015-08-29T01:15:00.795Z,10.72
2015-08-29T01:15:12.451Z,10.63
2015-08-29T01:15:24.826Z,10.67
2015-08-29T01:15:37.201Z,10.69
2015-08-29T01:15:49.593Z,10.75
2015-08-29T01:16:01.968Z,10.77
2015-08-29T01:16:14.343Z,10.69
2015-08-29T01:16:26.718Z,10.67
2015-08-29T01:16:39.109Z,10.7
2015-08-29T01:16:51.501Z,10.77
2015-08-29T01:17:03.876Z,10.75
2015-08-29T01:17:16.251Z,10.67
2015-08-29T01:17:28.626Z,10.69
2015-08-29T01:17:41.016Z,10.7
2015-08-29T01:17:53.393Z,10.76
2015-08-29T01:18:05.753Z,10.72
2015-08-29T01:18:18.128Z,10.65
2015-08-29T01:18:30.503Z,10.79
2015-08-29T01:18:42.878Z,10.72
2015-08-29T01:18:55.256Z,10.69
2015-08-29T01:19:07.631Z,10.7
2015-08-29T01:19:20.037Z,10.76
2015-08-29T01:19:32.428Z,10.77
2015-08-29T01:19:44.818Z,10.65
2015-08-29T01:19:57.194Z,10.7
2015-08-29T01:20:09.585Z,10.67
2015-08-29T01:20:21.975Z,10.69
2015-08-29T01:20:34.366Z,10.8
2015-08-29T01:20:46.897Z,10.79
2015-08-29T01:20:59.307Z,10.75
2015-08-29T01:21:11.744Z,10.63
2015-08-29T01:21:24.135Z,10.73
2015-08-29T01:21:36.557Z,10.73
2015-08-29T01:21:48.947Z,10.79
2015-08-29T01:22:01.370Z,10.77
2015-08-29T01:22:13.792Z,10.76
2015-08-29T01:22:26.198Z,10.79
2015-08-29T01:22:38.651Z,10.77
2015-08-29T01:22:51.011Z,10.76
2015-08-29T01:23:03.389Z,10.76
2015-08-29T01:23:15.764Z,10.73
2015-08-29T01:23:28.154Z,10.7
2015-08-29T01:23:40.529Z,10.61
2015-08-29T01:23:52.904Z,10.83
2015-08-29T01:24:05.281Z,10.7
2015-08-29T01:24:17.656Z,10.72
2015-08-29T01:24:30.016Z,10.8
2015-08-29T01:24:42.406Z,10.83
2015-08-29T01:24:54.797Z,10.8
2015-08-29T01:25:07.157Z,10.77
2015-08-29T01:25:19.548Z,10.79
2015-08-29T01:25:31.923Z,10.77
2015-08-29T01:25:44.298Z,10.8
2015-08-29T01:25:56.673Z,10.79
2015-08-29T01:26:09.034Z,10.75
2015-08-29T01:26:21.425Z,10.85
2015-08-29T01:26:33.800Z,10.88
2015-08-29T01:26:46.175Z,10.83
2015-08-29T01:26:58.550Z,10.79
2015-08-29T01:27:10.927Z,10.75
2015-08-29T01:27:23.349Z,10.77
2015-08-29T01:27:35.724Z,10.8
2015-08-29T01:27:48.099Z,10.8
2015-08-29T01:28:00.458Z,10.83
2015-08-29T01:28:12.835Z,10.84
2015-08-29T01:28:25.210Z,10.88
2015-08-29T01:28:36.898Z,10.79
2015-08-29T01:28:49.288Z,10.83
2015-08-29T01:29:01.679Z,10.85
2015-08-29T01:29:14.056Z,10.87
2015-08-29T01:29:26.447Z,10.8
2015-08-29T01:29:38.822Z,10.83
2015-08-29T01:29:51.228Z,10.79
2015-08-29T01:30:03.650Z,10.9
2015-08-29T01:30:16.042Z,10.83
2015-08-29T01:30:28.464Z,10.85
2015-08-29T01:30:40.855Z,10.79
2015-08-29T01:30:53.261Z,10.8
2015-08-29T01:31:05.667Z,10.87
2015-08-29T01:31:18.091Z,10.84
2015-08-29T01:31:30.529Z,10.85
2015-08-29T01:31:42.919Z,10.88
2015-08-29T01:31:55.341Z,10.85
2015-08-29T01:32:07.763Z,10.85
2015-08-29T01:32:20.140Z,10.9
2015-08-29T01:32:32.531Z,10.91
2015-08-29T01:32:44.921Z,10.94
2015-08-29T01:32:57.296Z,10.9
2015-08-29T01:33:09.687Z,10.88
2015-08-29T01:33:22.080Z,10.88
2015-08-29T01:33:34.470Z,10.94
2015-08-29T01:33:46.861Z,10.85
2015-08-29T01:33:59.251Z,10.9
2015-08-29T01:34:11.626Z,10.9
2015-08-29T01:34:24.019Z,10.88
2015-08-29T01:34:36.394Z,10.9
2015-08-29T01:34:48.769Z,10.9
2015-08-29T01:35:01.160Z,10.88
2015-08-29T01:35:13.566Z,10.87
2015-08-29T01:35:25.975Z,10.87
2015-08-29T01:35:38.350Z,10.94
2015-08-29T01:35:50.741Z,10.92
2015-08-29T01:36:03.116Z,10.9
2015-08-29T01:36:15.506Z,10.92
2015-08-29T01:36:27.882Z,10.95
2015-08-29T01:36:40.273Z,10.98
2015-08-29T01:36:52.664Z,10.9
2015-08-29T01:37:05.054Z,10.91
2015-08-29T01:37:17.429Z,10.87
2015-08-29T01:37:29.806Z,11
2015-08-29T01:37:42.197Z,10.9
2015-08-29T01:37:54.572Z,10.9
2015-08-29T01:38:06.978Z,10.88
2015-08-29T01:38:19.384Z,10.95
2015-08-29T01:38:31.777Z,10.95
2015-08-29T01:38:44.168Z,10.94
2015-08-29T01:38:56.558Z,10.97
2015-08-29T01:39:08.965Z,10.85
2015-08-29T01:39:21.386Z,10.94
2015-08-29T01:39:33.810Z,10.91
2015-08-29T01:39:46.217Z,10.87
2015-08-29T01:39:58.654Z,10.94
2015-08-29T01:40:11.076Z,10.83
2015-08-29T01:40:23.482Z,10.9
2015-08-29T01:40:35.906Z,10.84
2015-08-29T01:40:48.312Z,10.92
2015-08-29T01:41:00.781Z,10.91
2015-08-29T01:41:13.219Z,10.95
2015-08-29T01:41:25.609Z,10.85
2015-08-29T01:41:38.017Z,10.84
2015-08-29T01:41:50.392Z,10.87
2015-08-29T01:42:02.783Z,10.91
2015-08-29T01:42:15.158Z,10.9
2015-08-29T01:42:27.549Z,10.9
2015-08-29T01:42:39.927Z,10.9
2015-08-29T01:42:52.333Z,10.91
2015-08-29T01:43:04.724Z,10.95
2015-08-29T01:43:17.114Z,10.84
2015-08-29T01:43:29.489Z,10.83
2015-08-29T01:43:41.881Z,10.84
2015-08-29T01:43:54.271Z,10.83
2015-08-29T01:44:06.646Z,10.85
2015-08-29T01:44:19.037Z,10.9
2015-08-29T01:44:31.428Z,10.87
2015-08-29T01:44:43.820Z,10.9
2015-08-29T01:44:56.195Z,10.87
2015-08-29T01:45:08.586Z,10.85
2015-08-29T01:45:20.977Z,10.91
2015-08-29T01:45:33.352Z,10.85
2015-08-29T01:45:45.744Z,10.85
2015-08-29T01:45:58.150Z,10.83
2015-08-29T01:46:10.557Z,10.88
2015-08-29T01:46:22.947Z,10.87
2015-08-29T01:46:35.338Z,10.83
2015-08-29T01:46:47.731Z,10.9
2015-08-29T01:47:00.137Z,10.87
2015-08-29T01:47:12.543Z,10.84
2015-08-29T01:47:24.981Z,10.88
2015-08-29T01:47:37.418Z,10.9
2015-08-29T01:47:49.123Z,10.94
2015-08-29T01:48:01.529Z,10.88
2015-08-29T01:48:13.233Z,10.94
2015-08-29T01:48:25.654Z,10.88
2015-08-29T01:48:38.092Z,10.88
2015-08-29T01:48:50.516Z,10.91
2015-08-29T01:49:02.922Z,10.91
2015-08-29T01:49:15.344Z,10.95
2015-08-29T01:49:27.016Z,10.88
2015-08-29T01:49:39.422Z,10.94
2015-08-29T01:49:51.799Z,10.85
2015-08-29T01:50:04.174Z,10.98
2015-08-29T01:50:16.565Z,10.87
2015-08-29T01:50:28.940Z,10.88
2015-08-29T01:50:41.330Z,10.9
2015-08-29T01:50:53.723Z,10.87
2015-08-29T01:51:06.114Z,10.91
2015-08-29T01:51:18.489Z,10.95
2015-08-29T01:51:30.864Z,10.94
2015-08-29T01:51:43.254Z,10.88
2015-08-29T01:51:55.631Z,10.91
2015-08-29T01:52:08.022Z,10.87
2015-08-29T01:52:20.397Z,10.88
2015-08-29T01:52:32.787Z,10.88
2015-08-29T01:52:45.162Z,10.9
2015-08-29T01:52:57.539Z,10.95
2015-08-29T01:53:09.914Z,10.88
2015-08-29T01:53:22.289Z,10.9
2015-08-29T01:53:34.696Z,10.9
2015-08-29T01:53:47.102Z,10.85
2015-08-29T01:53:59.495Z,10.87
2015-08-29T01:54:11.870Z,10.9
2015-08-29T01:54:24.245Z,10.9
2015-08-29T01:54:36.635Z,10.9
2015-08-29T01:54:49.010Z,10.76
2015-08-29T01:55:01.402Z,10.85
2015-08-29T01:55:13.824Z,10.87
2015-08-29T01:55:26.214Z,10.83
2015-08-29T01:55:38.621Z,10.92
2015-08-29T01:55:51.027Z,10.87
2015-08-29T01:56:03.419Z,10.83
2015-08-29T01:56:15.826Z,10.91
2015-08-29T01:56:28.248Z,10.88
2015-08-29T01:56:40.669Z,10.83
2015-08-29T01:56:53.076Z,10.85
2015-08-29T01:57:05.501Z,10.8
2015-08-29T01:57:17.922Z,10.73
2015-08-29T01:57:30.344Z,10.8
2015-08-29T01:57:42.782Z,10.73
2015-08-29T01:57:55.204Z,10.87
2015-08-29T01:58:07.643Z,10.77
2015-08-29T01:58:20.096Z,10.8
2015-08-29T01:58:32.518Z,10.83
2015-08-29T01:58:44.909Z,10.79
2015-08-29T01:58:57.284Z,10.85
2015-08-29T01:59:09.676Z,10.76
2015-08-29T01:59:22.067Z,10.79
2015-08-29T01:59:34.442Z,10.75
2015-08-29T01:59:46.833Z,10.83
2015-08-29T01:59:59.208Z,10.88
2015-08-29T02:00:11.616Z,10.88
2015-08-29T02:00:24.022Z,10.85
2015-08-29T02:00:36.428Z,10.9
2015-08-29T02:00:48.803Z,10.79
2015-08-29T02:01:01.210Z,10.9
2015-08-29T02:01:13.587Z,10.9
2015-08-29T02:01:25.977Z,10.9
2015-08-29T02:01:38.368Z,10.84
2015-08-29T02:01:50.759Z,10.87
2015-08-29T02:02:03.134Z,10.92
2015-08-29T02:02:15.526Z,10.92
2015-08-29T02:02:27.901Z,10.87
2015-08-29T02:02:40.292Z,10.85
2015-08-29T02:02:52.682Z,10.9
2015-08-29T02:03:05.089Z,10.87
2015-08-29T02:03:17.481Z,10.87
2015-08-29T02:03:29.872Z,10.91
2015-08-29T02:03:42.247Z,10.94
2015-08-29T02:03:54.638Z,10.9
2015-08-29T02:04:07.028Z,10.87
2015-08-29T02:04:19.405Z,10.98
2015-08-29T02:04:31.796Z,10.87
2015-08-29T02:04:44.202Z,10.98
2015-08-29T02:04:56.608Z,10.95
2015-08-29T02:05:08.999Z,10.98
2015-08-29T02:05:21.391Z,10.97
2015-08-29T02:05:33.781Z,10.98
2015-08-29T02:05:46.187Z,10.91
2015-08-29T02:05:58.609Z,10.9
2015-08-29T02:06:11.000Z,11.05
2015-08-29T02:06:23.409Z,10.95
2015-08-29T02:06:35.815Z,10.98
2015-08-29T02:06:48.222Z,10.9
2015-08-29T02:07:00.644Z,10.92
2015-08-29T02:07:13.034Z,10.91
2015-08-29T02:07:25.473Z,10.97
2015-08-29T02:07:37.895Z,11
2015-08-29T02:07:50.301Z,10.97
2015-08-29T02:08:02.723Z,11.05
2015-08-29T02:08:15.098Z,10.97
2015-08-29T02:08:27.476Z,11.03
2015-08-29T02:08:39.851Z,10.97
2015-08-29T02:08:52.226Z,10.97
2015-08-29T02:09:04.601Z,10.95
2015-08-29T02:09:16.976Z,11.03
2015-08-29T02:09:29.353Z,10.9
2015-08-29T02:09:41.728Z,10.85
2015-08-29T02:09:54.087Z,10.97
2015-08-29T02:10:06.462Z,10.98
2015-08-29T02:10:18.837Z,11.05
2015-08-29T02:10:31.214Z,10.97
2015-08-29T02:10:43.605Z,11.09
2015-08-29T02:10:55.261Z,10.97
2015-08-29T02:11:06.948Z,11
2015-08-29T02:11:19.323Z,10.94
2015-08-29T02:11:31.700Z,11
2015-08-29T02:11:44.075Z,10.97
2015-08-29T02:11:56.450Z,11.03
2015-08-29T02:12:08.872Z,11
2015-08-29T02:12:21.247Z,11.09
2015-08-29T02:12:33.639Z,11.03
2015-08-29T02:12:46.030Z,11
2015-08-29T02:12:58.389Z,11
2015-08-29T02:13:10.764Z,11.06
2015-08-29T02:13:23.139Z,11.09
2015-08-29T02:13:35.533Z,11
2015-08-29T02:13:47.908Z,11.05
2015-08-29T02:14:00.314Z,11.02
2015-08-29T02:14:12.689Z,11.03
2015-08-29T02:14:25.079Z,10.98
2015-08-29T02:14:37.456Z,10.98
2015-08-29T02:14:49.847Z,11.08
2015-08-29T02:15:02.253Z,11.08
2015-08-29T02:15:14.660Z,10.98
2015-08-29T02:15:27.066Z,11.06
2015-08-29T02:15:39.474Z,11.03
2015-08-29T02:15:51.896Z,11.08
2015-08-29T02:16:04.302Z,11.03
2015-08-29T02:16:16.693Z,11.05
2015-08-29T02:16:29.099Z,11.08
2015-08-29T02:16:41.491Z,11.03
2015-08-29T02:16:53.928Z,11.05
2015-08-29T02:17:06.319Z,11.08
2015-08-29T02:17:18.741Z,11.06
2015-08-29T02:17:31.147Z,10.97
2015-08-29T02:17:43.556Z,11.08
2015-08-29T02:17:55.916Z,10.98
2015-08-29T02:18:08.291Z,11.06
2015-08-29T02:18:20.666Z,10.98
2015-08-29T02:18:33.041Z,11.03
2015-08-29T02:18:45.417Z,11.05
2015-08-29T02:18:57.792Z,11.05
2015-08-29T02:19:10.182Z,11.03
2015-08-29T02:19:22.557Z,11
2015-08-29T02:19:34.932Z,11
2015-08-29T02:19:47.325Z,11.02
2015-08-29T02:19:59.700Z,10.94
2015-08-29T02:20:12.090Z,11.03
2015-08-29T02:20:24.465Z,11
2015-08-29T02:20:36.840Z,10.98
2015-08-29T02:20:49.217Z,10.95
2015-08-29T02:21:01.592Z,10.95
2015-08-29T02:21:13.983Z,11.13
2015-08-29T02:21:26.358Z,10.98
2015-08-29T02:21:38.733Z,10.95
2015-08-29T02:21:51.111Z,11.02
2015-08-29T02:22:03.517Z,11.05
2015-08-29T02:22:15.892Z,11.03
2015-08-29T02:22:28.267Z,11
2015-08-29T02:22:40.642Z,10.95
2015-08-29T02:22:53.018Z,11.03
2015-08-29T02:23:05.393Z,11
2015-08-29T02:23:17.768Z,10.95
2015-08-29T02:23:30.159Z,11
2015-08-29T02:23:42.550Z,10.92
2015-08-29T02:23:54.942Z,10.94
2015-08-29T02:24:07.317Z,10.95
2015-08-29T02:24:19.708Z,11.03
2015-08-29T02:24:32.098Z,11.02
2015-08-29T02:24:44.505Z,11
2015-08-29T02:24:56.929Z,10.95
2015-08-29T02:25:09.350Z,11
2015-08-29T02:25:21.757Z,10.92
2015-08-29T02:25:34.163Z,11
2015-08-29T02:25:46.569Z,10.95
2015-08-29T02:25:58.993Z,10.98
2015-08-29T02:26:11.368Z,11.03
2015-08-29T02:26:23.743Z,10.98
2015-08-29T02:26:36.118Z,10.98
2015-08-29T02:26:48.509Z,11.02
2015-08-29T02:27:00.887Z,11
2015-08-29T02:27:13.262Z,11.05
2015-08-29T02:27:25.621Z,11.02
2015-08-29T02:27:38.012Z,11.09
2015-08-29T02:27:50.387Z,11.02
2015-08-29T02:28:02.763Z,10.97
2015-08-29T02:28:15.138Z,11.02
2015-08-29T02:28:27.513Z,11.02
2015-08-29T02:28:39.888Z,11
2015-08-29T02:28:52.278Z,10.97
2015-08-29T02:29:04.671Z,11
2015-08-29T02:29:17.030Z,10.98
2015-08-29T02:29:29.405Z,11.02
2015-08-29T02:29:41.796Z,11.06
2015-08-29T02:29:54.171Z,11.05
2015-08-29T02:30:06.548Z,11.05
2015-08-29T02:30:18.923Z,11.06
2015-08-29T02:30:31.298Z,11.06
2015-08-29T02:30:43.689Z,11.03
2015-08-29T02:30:56.064Z,10.98
2015-08-29T02:31:08.441Z,11.02
2015-08-29T02:31:20.831Z,11.06
2015-08-29T02:31:33.222Z,10.98
2015-08-29T02:31:45.612Z,11.06
2015-08-29T02:31:57.987Z,10.98
2015-08-29T02:32:10.380Z,10.98
2015-08-29T02:32:22.771Z,11.03
2015-08-29T02:32:35.146Z,11
2015-08-29T02:32:47.536Z,11.03
2015-08-29T02:32:59.911Z,11.03
2015-08-29T02:33:12.320Z,10.94
2015-08-29T02:33:24.741Z,11.02
2015-08-29T02:33:37.148Z,11.03
2015-08-29T02:33:49.554Z,11.12
2015-08-29T02:34:01.960Z,11.05
2015-08-29T02:34:14.368Z,11.05
2015-08-29T02:34:26.775Z,11.08
2015-08-29T02:34:39.181Z,11.05
2015-08-29T02:34:51.603Z,11.02
2015-08-29T02:35:04.009Z,11.05
2015-08-29T02:35:16.434Z,11.06
2015-08-29T02:35:28.856Z,11.03
2015-08-29T02:35:41.231Z,11.02
2015-08-29T02:35:53.606Z,10.98
2015-08-29T02:36:05.996Z,11.06
2015-08-29T02:36:18.388Z,11.05
2015-08-29T02:36:30.763Z,11.09
2015-08-29T02:36:43.138Z,11.03
2015-08-29T02:36:55.513Z,11.06
2015-08-29T02:37:07.904Z,11.08
2015-08-29T02:37:20.282Z,11
2015-08-29T02:37:32.657Z,10.97
2015-08-29T02:37:45.032Z,11.03
2015-08-29T02:37:57.407Z,11.02
2015-08-29T02:38:09.782Z,11.02
2015-08-29T02:38:22.159Z,11.02
2015-08-29T02:38:34.565Z,11
2015-08-29T02:38:46.940Z,10.97
2015-08-29T02:38:59.315Z,11.08
2015-08-29T02:39:11.690Z,11.03
2015-08-29T02:39:24.066Z,10.95
2015-08-29T02:39:36.457Z,10.98
2015-08-29T02:39:48.832Z,10.98
2015-08-29T02:40:01.222Z,10.98
2015-08-29T02:40:13.597Z,10.95
2015-08-29T02:40:25.959Z,11.08
2015-08-29T02:40:38.349Z,10.98